createdAt,value
2024-04-30T00:01:37.196Z,101515.69
2024-04-30T00:04:13.986Z,101520.50
2024-04-30T00:06:47.411Z,101535.47
2024-04-30T00:09:20.553Z,101526.88
2024-04-30T00:12:01.796Z,101542.66
2024-04-30T00:14:55.640Z,101555.19
2024-04-30T00:17:31.385Z,101540.25
2024-04-30T00:20:05.231Z,101545.78
2024-04-30T00:22:38.479Z,101567.00
2024-04-30T00:25:11.662Z,101535.97
2024-04-30T00:27:47.099Z,101545.72
2024-04-30T00:30:20.334Z,101543.34
2024-04-30T00:32:56.821Z,101530.84
2024-04-30T00:35:32.535Z,101535.66
2024-04-30T00:38:05.653Z,101561.22
2024-04-30T00:40:38.912Z,101559.63
2024-04-30T00:43:12.381Z,101547.09
2024-04-30T00:45:49.256Z,101549.56
2024-04-30T00:48:39.284Z,101537.72
2024-04-30T00:51:23.192Z,101526.38
2024-04-30T00:54:06.143Z,101523.25
2024-04-30T00:56:46.995Z,101514.53
2024-04-30T00:59:30.367Z,101516.94
2024-04-30T01:02:10.079Z,101500.59
2024-04-30T01:08:17.604Z,101516.16
2024-04-30T01:10:53.448Z,101502.81
2024-04-30T01:13:33.186Z,101497.97
2024-04-30T01:16:07.938Z,101505.19
2024-04-30T01:18:41.368Z,101508.53
2024-04-30T01:22:08.368Z,101490.41
2024-04-30T01:24:46.986Z,101477.06
2024-04-30T01:27:29.323Z,101483.69
2024-04-30T01:30:04.159Z,101487.28
2024-04-30T01:32:47.727Z,101516.38
2024-04-30T01:35:24.084Z,101515.75
2024-04-30T01:37:57.339Z,101520.88
2024-04-30T01:40:33.051Z,101525.22
2024-04-30T01:43:10.821Z,101515.88
2024-04-30T01:46:31.312Z,101521.41
2024-04-30T01:49:34.856Z,101525.47
2024-04-30T01:52:33.802Z,101531.13
2024-04-30T01:55:16.908Z,101523.31
2024-04-30T01:58:03.440Z,101514.66
2024-04-30T02:02:21.272Z,101501.38
2024-04-30T02:04:53.974Z,101514.03
2024-04-30T02:08:02.686Z,101532.91
2024-04-30T02:10:45.329Z,101518.81
2024-04-30T02:13:18.710Z,101507.91
2024-04-30T02:16:01.708Z,101505.97
2024-04-30T02:18:46.592Z,101506.78
2024-04-30T02:21:54.298Z,101515.00
2024-04-30T02:24:45.326Z,101506.78
2024-04-30T02:27:28.399Z,101531.66
2024-04-30T02:30:04.786Z,101525.31
2024-04-30T02:33:20.595Z,101506.88
2024-04-30T02:37:12.638Z,101493.84
2024-04-30T02:47:01.514Z,101486.69
2024-04-30T02:49:50.484Z,101480.00
2024-04-30T02:52:54.150Z,101484.34
2024-04-30T02:55:33.751Z,101481.22
2024-04-30T02:58:07.070Z,101489.94
2024-04-30T03:00:40.781Z,101478.50
2024-04-30T03:03:28.634Z,101494.56
2024-04-30T03:09:03.272Z,101487.53
2024-04-30T03:11:45.745Z,101492.59
2024-04-30T03:14:24.197Z,101457.56
2024-04-30T03:16:59.980Z,101449.63
2024-04-30T03:20:01.715Z,101449.63
2024-04-30T03:22:48.353Z,101451.16
2024-04-30T03:26:13.109Z,101472.41
2024-04-30T03:28:50.057Z,101467.69
2024-04-30T03:31:29.972Z,101461.91
2024-04-30T03:34:19.460Z,101466.22
2024-04-30T03:37:00.739Z,101463.81
2024-04-30T03:39:48.667Z,101465.84
2024-04-30T03:42:28.024Z,101476.84
2024-04-30T03:45:15.950Z,101484.34
2024-04-30T03:48:18.806Z,101470.88
2024-04-30T03:50:55.521Z,101451.88
2024-04-30T03:53:38.829Z,101444.00
2024-04-30T03:56:23.531Z,101453.97
2024-04-30T03:59:04.839Z,101453.97
2024-04-30T04:02:28.927Z,101452.81
2024-04-30T04:04:51.506Z,101454.34
2024-04-30T04:07:26.216Z,101458.66
2024-04-30T04:10:14.212Z,101444.94
2024-04-30T04:14:09.771Z,101444.47
2024-04-30T04:17:07.300Z,101432.31
2024-04-30T04:19:52.548Z,101429.19
2024-04-30T04:22:40.043Z,101445.72
2024-04-30T04:25:13.364Z,101430.00
2024-04-30T04:27:46.610Z,101446.84
2024-04-30T04:30:20.805Z,101444.94
2024-04-30T04:32:54.007Z,101436.69
2024-04-30T04:35:27.272Z,101433.88
2024-04-30T04:38:00.263Z,101435.09
2024-04-30T04:40:33.663Z,101447.22
2024-04-30T04:43:09.644Z,101436.16
2024-04-30T04:45:43.090Z,101443.28
2024-04-30T04:48:16.399Z,101437.75
2024-04-30T04:50:49.626Z,101423.97
2024-04-30T04:53:22.618Z,101432.22
2024-04-30T04:55:55.730Z,101423.19
2024-04-30T04:58:30.028Z,101423.56
2024-04-30T05:01:03.243Z,101437.34
2024-04-30T05:03:56.726Z,101433.00
2024-04-30T05:06:29.854Z,101425.91
2024-04-30T05:09:05.690Z,101415.63
2024-04-30T05:11:38.716Z,101428.97
2024-04-30T05:14:11.957Z,101426.53
2024-04-30T05:16:45.212Z,101440.66
2024-04-30T05:19:20.824Z,101436.34
2024-04-30T05:21:53.812Z,101417.44
2024-04-30T05:24:29.453Z,101438.22
2024-04-30T05:27:03.034Z,101427.19
2024-04-30T05:29:39.306Z,101434.19
2024-04-30T05:32:12.436Z,101425.66
2024-04-30T05:34:50.113Z,101427.19
2024-04-30T05:37:23.259Z,101419.25
2024-04-30T05:39:56.552Z,101426.38
2024-04-30T05:42:29.763Z,101431.06
2024-04-30T05:45:03.398Z,101432.66
2024-04-30T05:47:36.732Z,101435.81
2024-04-30T05:50:09.924Z,101419.25
2024-04-30T05:52:45.672Z,101416.88
2024-04-30T05:55:18.864Z,101419.03
2024-04-30T05:57:52.146Z,101419.69
2024-04-30T06:00:25.284Z,101423.84
2024-04-30T06:03:03.794Z,101425.63
2024-04-30T06:05:37.472Z,101416.16
2024-04-30T06:08:10.624Z,101433.09
2024-04-30T06:10:43.848Z,101421.22
2024-04-30T06:13:17.045Z,101418.88
2024-04-30T06:15:50.213Z,101422.00
2024-04-30T06:18:23.505Z,101423.06
2024-04-30T06:20:56.673Z,101424.97
2024-04-30T06:23:29.967Z,101410.75
2024-04-30T06:26:04.785Z,101424.97
2024-04-30T06:28:42.054Z,101436.78
2024-04-30T06:31:27.908Z,101419.78
2024-04-30T06:34:19.821Z,101417.72
2024-04-30T06:37:07.877Z,101416.16
2024-04-30T06:39:43.832Z,101418.06
2024-04-30T06:42:18.014Z,101422.91
2024-04-30T06:44:51.226Z,101404.34
2024-04-30T06:48:15.225Z,101416.03
2024-04-30T06:50:58.616Z,101409.06
2024-04-30T07:02:18.971Z,101419.56
2024-04-30T08:19:41.687Z,101427.09
2024-04-30T08:22:31.256Z,101431.72
2024-04-30T08:25:04.747Z,101445.00
2024-04-30T08:27:40.693Z,101430.28
2024-04-30T08:30:27.198Z,101424.06
2024-04-30T08:33:00.882Z,101431.31
2024-04-30T08:35:34.127Z,101432.72
2024-04-30T10:22:19.679Z,101364.59
2024-04-30T10:24:52.608Z,101347.41
2024-04-30T10:27:25.583Z,101347.47
2024-04-30T10:29:59.168Z,101341.03
2024-04-30T10:32:32.642Z,101337.97
2024-04-30T10:35:06.364Z,101333.13
2024-04-30T10:37:39.684Z,101334.38
2024-04-30T10:40:35.573Z,101340.50
2024-04-30T10:43:20.319Z,101352.50
2024-04-30T10:45:53.453Z,101341.97
2024-04-30T10:48:27.304Z,101338.75
2024-04-30T10:51:01.355Z,101340.28
2024-04-30T10:53:34.463Z,101324.34
2024-04-30T10:56:08.169Z,101324.84
2024-04-30T10:59:01.739Z,101326.75
2024-04-30T11:01:34.863Z,101326.75
2024-04-30T11:04:27.427Z,101314.16
2024-04-30T11:07:00.809Z,101300.31
2024-04-30T11:10:01.484Z,101319.78
2024-04-30T11:12:34.648Z,101311.56
2024-04-30T13:57:10.303Z,101133.63
2024-04-30T13:59:44.326Z,101129.06
2024-04-30T14:02:18.470Z,101126.75
2024-04-30T14:04:51.563Z,101111.41
2024-04-30T14:07:24.569Z,101117.50
2024-04-30T14:09:57.386Z,101114.00
2024-04-30T14:12:30.295Z,101116.44
2024-04-30T14:15:03.495Z,101108.31
2024-04-30T14:17:36.927Z,101110.97
2024-04-30T14:20:10.326Z,101116.91
2024-04-30T14:22:43.421Z,101101.72
2024-04-30T14:25:16.450Z,101099.47
2024-04-30T14:27:49.297Z,101087.66
2024-04-30T14:30:22.123Z,101103.63
2024-04-30T14:32:55.038Z,101095.59
2024-04-30T14:35:53.379Z,101088.84
2024-04-30T14:38:26.776Z,101074.88
2024-04-30T14:40:59.516Z,101068.63
2024-04-30T14:43:32.301Z,101061.50
2024-04-30T14:46:07.006Z,101073.50
2024-04-30T14:48:43.132Z,101048.19
2024-04-30T14:51:16.870Z,101053.84
2024-04-30T14:53:49.975Z,101044.44
2024-04-30T14:56:22.759Z,101043.91
2024-04-30T14:58:55.662Z,101041.84
2024-04-30T15:01:28.601Z,101044.63
2024-04-30T15:04:01.578Z,101021.81
2024-04-30T15:06:34.514Z,101040.25
2024-04-30T15:09:11.031Z,101039.22
2024-04-30T15:11:43.891Z,101048.59
2024-04-30T15:14:16.729Z,101032.81
2024-04-30T15:16:49.755Z,101039.16
2024-04-30T15:19:22.788Z,101032.91
2024-04-30T15:21:57.203Z,101027.44
2024-04-30T15:24:30.109Z,101030.47
2024-04-30T15:27:03.375Z,101020.56
2024-04-30T15:29:36.140Z,101027.19
2024-04-30T15:32:08.957Z,101018.16
2024-04-30T15:34:46.382Z,101014.75
2024-04-30T15:37:20.395Z,101010.84
2024-04-30T15:39:53.232Z,101015.00
2024-04-30T15:42:26.010Z,101009.63
2024-04-30T15:44:58.762Z,101011.81
2024-04-30T15:47:31.584Z,101009.34
2024-04-30T15:50:04.654Z,101001.47
2024-04-30T15:52:37.473Z,100992.50
2024-04-30T15:55:10.343Z,101001.09
2024-04-30T15:57:43.228Z,101002.50
2024-04-30T16:00:16.441Z,101001.00
2024-04-30T16:02:51.186Z,100998.47
2024-04-30T16:05:24.360Z,101002.25
2024-04-30T16:07:57.135Z,100999.38
2024-04-30T16:10:30.074Z,100990.22
2024-04-30T16:13:02.895Z,100988.75
2024-04-30T16:15:35.725Z,101000.94
2024-04-30T16:18:10.168Z,100994.03
2024-04-30T16:20:43.103Z,100977.97
2024-04-30T16:23:15.934Z,100980.88
2024-04-30T16:25:48.894Z,100984.59
2024-04-30T16:28:25.310Z,100973.97
2024-04-30T16:30:58.103Z,100968.50
2024-04-30T16:33:31.093Z,100975.56
2024-04-30T16:36:04.788Z,100975.25
2024-04-30T16:38:38.453Z,100993.16
2024-04-30T16:41:15.584Z,100977.53
2024-04-30T16:43:48.452Z,100986.41
2024-04-30T16:46:47.835Z,100985.63
2024-04-30T16:49:20.839Z,100967.81
2024-04-30T16:51:53.658Z,100972.75
2024-04-30T16:54:29.042Z,100966.75
2024-04-30T16:57:01.883Z,100956.25
2024-04-30T16:59:35.339Z,100955.19
2024-04-30T17:02:11.287Z,100939.75
2024-04-30T17:04:44.915Z,100936.53
2024-04-30T17:07:17.870Z,100935.88
2024-04-30T17:09:50.815Z,100929.28
2024-04-30T17:12:23.750Z,100919.06
2024-04-30T17:14:56.517Z,100934.69
2024-04-30T17:17:29.706Z,100927.25
2024-04-30T17:20:04.678Z,100915.19
2024-04-30T17:22:37.634Z,100920.59
2024-04-30T17:25:10.402Z,100906.25
2024-04-30T17:27:46.153Z,100906.28
2024-04-30T17:30:19.297Z,100911.38
2024-04-30T17:32:52.419Z,100901.66
2024-04-30T17:35:35.831Z,100902.69
2024-04-30T17:38:14.459Z,100914.13
2024-04-30T17:40:47.490Z,100906.44
2024-04-30T17:43:20.610Z,100903.06
2024-04-30T17:45:53.983Z,100903.25
2024-04-30T17:48:27.190Z,100911.97
2024-04-30T17:51:00.361Z,100909.81
2024-04-30T17:53:33.385Z,100921.84
2024-04-30T17:56:07.241Z,100923.53
2024-04-30T17:58:44.044Z,100905.31
2024-04-30T18:01:19.283Z,100917.31
2024-04-30T18:03:54.609Z,100930.81
2024-04-30T18:09:03.058Z,100927.03
2024-04-30T18:11:36.110Z,100917.69
2024-04-30T18:14:09.607Z,100918.84
2024-04-30T18:16:45.734Z,100928.94
2024-04-30T18:19:19.083Z,100922.13
2024-04-30T18:21:53.351Z,100923.03
2024-04-30T18:24:26.731Z,100919.56
2024-04-30T18:27:00.210Z,100912.69
2024-04-30T18:29:33.262Z,100909.47
2024-04-30T18:32:09.283Z,100918.97
2024-04-30T18:34:44.622Z,100908.44
